createdAt,value
2022-09-28T00:01:08.041Z,7.80
2022-09-28T00:03:37.708Z,7.81
2022-09-28T00:06:08.537Z,7.82
2022-09-28T00:08:36.636Z,7.82
2022-09-28T00:11:06.002Z,7.85
2022-09-28T00:13:33.795Z,7.86
2022-09-28T00:16:02.125Z,7.88
2022-09-28T00:18:32.156Z,7.89
2022-09-28T00:21:10.410Z,7.90
2022-09-28T00:24:00.761Z,7.90
2022-09-28T00:26:29.090Z,7.91
2022-09-28T00:28:59.428Z,7.92
2022-09-28T00:31:29.574Z,7.92
2022-09-28T00:34:00.758Z,7.93
2022-09-28T00:36:29.716Z,7.93
2022-09-28T00:38:57.452Z,7.94
2022-09-28T00:41:26.796Z,7.94
2022-09-28T00:44:26.400Z,7.94
2022-09-28T00:46:55.716Z,7.90
2022-09-28T00:49:45.690Z,7.87
2022-09-28T00:52:28.864Z,7.83
2022-09-28T00:54:57.829Z,7.79
2022-09-28T00:57:26.098Z,7.78
2022-09-28T00:59:53.332Z,7.75
2022-09-28T01:02:21.762Z,7.73
2022-09-28T01:04:50.230Z,7.71
2022-09-28T01:07:18.621Z,7.69
2022-09-28T01:09:46.641Z,7.67
2022-09-28T01:12:14.110Z,7.63
2022-09-28T01:14:41.792Z,7.60
2022-09-28T01:17:45.186Z,7.56
2022-09-28T01:20:34.758Z,7.52
2022-09-28T01:23:23.325Z,7.48
2022-09-28T01:26:15.249Z,7.42
2022-09-28T01:28:44.794Z,7.34
2022-09-28T01:31:15.018Z,7.29
2022-09-28T01:33:47.734Z,7.26
2022-09-28T01:36:27.270Z,7.23
2022-09-28T01:38:57.775Z,7.19
2022-09-28T01:41:25.760Z,7.16
2022-09-28T01:43:56.266Z,7.12
2022-09-28T01:46:31.642Z,7.06
2022-09-28T01:49:00.335Z,6.99
2022-09-28T01:51:41.872Z,6.92
2022-09-28T01:54:18.630Z,6.86
2022-09-28T01:57:11.631Z,6.82
2022-09-28T01:59:43.689Z,6.80
2022-09-28T02:02:19.067Z,6.77
2022-09-28T02:05:10.896Z,6.76
2022-09-28T02:07:48.025Z,6.75
2022-09-28T02:10:19.974Z,6.72
2022-09-28T02:12:51.442Z,6.70
2022-09-28T02:15:24.819Z,6.68
2022-09-28T02:17:52.437Z,6.64
2022-09-28T02:20:22.255Z,6.59
2022-09-28T02:22:56.160Z,6.54
2022-09-28T02:25:36.949Z,6.50
2022-09-28T02:28:12.255Z,6.48
2022-09-28T02:30:41.450Z,6.47
2022-09-28T02:33:37.396Z,6.45
2022-09-28T02:36:05.455Z,6.42
2022-09-28T02:38:37.714Z,6.39
2022-09-28T02:41:23.801Z,6.38
2022-09-28T02:44:22.284Z,6.38
2022-09-28T02:47:05.112Z,6.40
2022-09-28T02:49:41.833Z,6.42
2022-09-28T02:52:35.245Z,6.45
2022-09-28T02:55:20.737Z,6.46
2022-09-28T02:58:07.381Z,6.46
2022-09-28T03:00:44.680Z,6.45
2022-09-28T03:03:28.905Z,6.43
2022-09-28T03:05:56.399Z,6.41
2022-09-28T03:08:37.433Z,6.44
2022-09-28T03:11:16.479Z,6.48
2022-09-28T03:13:47.200Z,6.52
2022-09-28T03:16:17.164Z,6.58
2022-09-28T03:18:45.568Z,6.63
2022-09-28T03:21:14.051Z,6.69
2022-09-28T03:23:42.238Z,6.75
2022-09-28T03:26:14.321Z,6.80
2022-09-28T03:28:41.879Z,6.87
2022-09-28T03:31:14.504Z,6.91
2022-09-28T03:33:41.721Z,6.97
2022-09-28T03:36:10.679Z,7.02
2022-09-28T03:38:38.560Z,7.05
2022-09-28T03:41:08.192Z,7.07
2022-09-28T03:43:36.439Z,7.10
2022-09-28T03:46:03.820Z,7.12
2022-09-28T03:48:36.178Z,7.13
2022-09-28T03:51:06.109Z,7.12
2022-09-28T03:53:34.153Z,7.12
2022-09-28T03:56:13.599Z,7.10
2022-09-28T03:58:41.529Z,7.08
2022-09-28T04:01:17.489Z,7.08
2022-09-28T04:03:47.095Z,7.07
2022-09-28T04:06:14.727Z,7.06
2022-09-28T04:08:44.493Z,7.04
2022-09-28T04:11:11.701Z,7.01
2022-09-28T04:13:39.125Z,6.98
2022-09-28T04:16:10.895Z,6.95
2022-09-28T04:18:40.459Z,6.93
2022-09-28T04:21:34.389Z,6.91
2022-09-28T04:24:08.160Z,6.91
2022-09-28T04:26:36.511Z,6.90
2022-09-28T04:29:16.907Z,6.88
2022-09-28T04:31:55.868Z,6.86
2022-09-28T04:34:36.484Z,6.84
2022-09-28T04:37:06.055Z,6.83
2022-09-28T04:39:33.416Z,6.83
2022-09-28T04:42:01.802Z,6.85
2022-09-28T04:44:29.473Z,6.87
2022-09-28T04:47:04.852Z,6.91
2022-09-28T04:49:32.869Z,6.96
2022-09-28T04:52:17.862Z,7.00
2022-09-28T04:54:48.279Z,7.06
2022-09-28T04:57:16.730Z,7.09
2022-09-28T04:59:43.905Z,7.13
2022-09-28T05:02:12.525Z,7.17
2022-09-28T05:05:00.438Z,7.18
2022-09-28T05:07:46.520Z,7.20
2022-09-28T05:10:14.523Z,7.22
2022-09-28T05:12:41.832Z,7.24
2022-09-28T05:15:10.007Z,7.26
2022-09-28T05:17:38.385Z,7.28
2022-09-28T05:20:28.049Z,7.30
2022-09-28T05:22:55.744Z,7.32
2022-09-28T05:25:22.990Z,7.35
2022-09-28T05:28:03.673Z,7.39
2022-09-28T05:31:04.043Z,7.44
2022-09-28T05:33:54.857Z,7.49
2022-09-28T05:36:22.760Z,7.55
2022-09-28T05:38:50.096Z,7.60
2022-09-28T05:41:17.348Z,7.67
2022-09-28T05:43:46.423Z,7.74
2022-09-28T05:46:13.850Z,7.82
2022-09-28T05:48:42.399Z,7.90
2022-09-28T05:51:10.740Z,7.97
2022-09-28T05:53:37.992Z,8.06
2022-09-28T05:56:05.863Z,8.13
2022-09-28T05:58:34.460Z,8.18
2022-09-28T06:01:01.953Z,8.20
2022-09-28T06:03:30.269Z,8.21
2022-09-28T06:05:57.630Z,8.24
2022-09-28T06:08:25.305Z,8.30
2022-09-28T06:11:03.039Z,8.38
2022-09-28T06:13:31.680Z,8.45
2022-09-28T06:15:58.950Z,8.51
2022-09-28T06:18:26.998Z,8.59
2022-09-28T06:21:13.541Z,8.71
2022-09-28T06:23:48.842Z,8.83
2022-09-28T06:26:17.766Z,8.96
2022-09-28T06:28:46.223Z,9.06
2022-09-28T06:31:13.869Z,9.12
2022-09-28T06:33:45.759Z,9.20
2022-09-28T06:36:13.919Z,9.30
2022-09-28T06:38:41.193Z,9.43
2022-09-28T06:41:09.583Z,9.53
2022-09-28T06:43:40.272Z,9.63
2022-09-28T06:46:14.485Z,9.72
2022-09-28T06:48:42.154Z,9.79
2022-09-28T06:51:12.491Z,9.85
2022-09-28T06:53:49.879Z,9.88
2022-09-28T06:56:36.081Z,9.90
2022-09-28T06:59:03.821Z,9.94
2022-09-28T07:01:31.250Z,9.96
2022-09-28T07:04:06.207Z,10.00
2022-09-28T07:06:52.955Z,10.06
2022-09-28T07:09:32.978Z,10.12
2022-09-28T07:12:01.600Z,10.14
2022-09-28T07:14:47.868Z,10.17
2022-09-28T07:17:16.823Z,10.17
2022-09-28T07:19:44.919Z,10.20
2022-09-28T07:22:18.934Z,10.23
2022-09-28T07:24:48.851Z,10.28
2022-09-28T07:27:40.307Z,10.34
2022-09-28T07:30:33.719Z,10.38
2022-09-28T07:33:21.351Z,10.44
2022-09-28T07:35:56.799Z,10.50
2022-09-28T07:38:28.192Z,10.55
2022-09-28T07:41:12.111Z,10.59
2022-09-28T07:43:50.609Z,10.63
2022-09-28T07:46:18.260Z,10.65
2022-09-28T07:48:55.573Z,10.69
2022-09-28T07:51:58.161Z,10.71
2022-09-28T07:54:28.461Z,10.76
2022-09-28T07:57:34.328Z,10.83
2022-09-28T08:00:23.078Z,10.86
2022-09-28T08:02:51.136Z,10.91
2022-09-28T08:05:23.406Z,10.97
2022-09-28T08:07:50.764Z,11.02
2022-09-28T08:10:18.422Z,11.10
2022-09-28T08:13:17.214Z,11.19
2022-09-28T08:16:13.913Z,11.29
2022-09-28T08:18:51.444Z,11.39
2022-09-28T08:21:37.755Z,11.51
2022-09-28T08:24:05.743Z,11.59
2022-09-28T08:26:34.205Z,11.64
2022-09-28T08:29:01.669Z,11.67
2022-09-28T08:32:01.982Z,11.72
2022-09-28T08:34:36.742Z,11.78
2022-09-28T08:37:09.613Z,11.85
2022-09-28T08:39:56.010Z,11.90
2022-09-28T08:42:40.251Z,11.97
2022-09-28T08:45:25.107Z,12.06
2022-09-28T08:48:37.213Z,12.14
2022-09-28T08:51:29.872Z,12.24
2022-09-28T08:54:39.239Z,12.36
2022-09-28T08:57:16.221Z,12.48
2022-09-28T08:59:51.683Z,12.56
2022-09-28T09:02:33.969Z,12.59
2022-09-28T09:05:17.507Z,12.58
2022-09-28T09:08:14.003Z,12.63
2022-09-28T09:11:07.471Z,12.77
2022-09-28T09:13:42.250Z,12.97
2022-09-28T09:16:28.744Z,13.11
2022-09-28T09:19:49.319Z,13.16
2022-09-28T09:22:40.844Z,13.21
2022-09-28T09:25:09.209Z,13.27
2022-09-28T09:28:15.879Z,13.29
2022-09-28T09:31:04.097Z,13.29
2022-09-28T09:33:59.730Z,13.31
2022-09-28T09:37:35.078Z,13.38
2022-09-28T09:40:36.148Z,13.52
2022-09-28T09:43:30.875Z,13.66
2022-09-28T09:46:30.444Z,13.87
2022-09-28T09:49:34.679Z,14.12
2022-09-28T09:52:05.694Z,14.27
2022-09-28T09:54:53.759Z,14.35
2022-09-28T09:57:34.756Z,14.48
2022-09-28T10:00:17.990Z,14.54
2022-09-28T10:02:51.876Z,14.60
2022-09-28T10:05:32.400Z,14.56
2022-09-28T10:08:10.258Z,14.54
2022-09-28T10:10:45.419Z,14.51
2022-09-28T10:13:13.921Z,14.46
2022-09-28T10:15:42.804Z,14.42
2022-09-28T10:18:19.438Z,14.36
2022-09-28T10:21:05.469Z,14.27
2022-09-28T10:24:05.501Z,14.14
2022-09-28T10:26:42.297Z,14.03
2022-09-28T10:29:22.830Z,13.91
2022-09-28T10:31:51.937Z,13.76
2022-09-28T10:34:29.847Z,13.59
2022-09-28T10:37:03.568Z,13.43
2022-09-28T10:39:54.745Z,13.25
2022-09-28T10:42:33.056Z,12.95
2022-09-28T10:45:08.213Z,12.57
2022-09-28T10:47:37.233Z,12.21
2022-09-28T10:50:21.278Z,11.89
2022-09-28T10:52:49.316Z,11.57
2022-09-28T10:56:19.332Z,11.34
2022-09-28T10:58:47.295Z,11.23
2022-09-28T11:01:27.385Z,11.17
2022-09-28T11:04:01.472Z,11.14
2022-09-28T11:06:38.439Z,11.14
2022-09-28T11:09:31.255Z,11.17
2022-09-28T11:12:05.092Z,11.26
2022-09-28T11:14:44.022Z,11.36
2022-09-28T11:17:28.583Z,11.47
2022-09-28T11:19:58.323Z,11.57
2022-09-28T11:22:34.749Z,11.66
2022-09-28T11:25:17.265Z,11.71
2022-09-28T11:27:53.733Z,11.76
2022-09-28T11:30:21.058Z,11.79
2022-09-28T11:33:26.949Z,11.79
2022-09-28T11:36:49.597Z,11.78
2022-09-28T11:39:32.920Z,11.76
2022-09-28T11:42:05.504Z,11.76
2022-09-28T11:44:45.065Z,11.75
2022-09-28T11:47:23.043Z,11.73
2022-09-28T11:50:08.214Z,11.68
2022-09-28T11:52:42.266Z,11.59
2022-09-28T11:55:23.196Z,11.47
2022-09-28T11:58:05.379Z,11.37
2022-09-28T12:00:37.362Z,11.32
2022-09-28T12:03:13.043Z,11.29
2022-09-28T12:05:53.380Z,11.28
2022-09-28T12:08:26.064Z,11.27
2022-09-28T12:11:13.582Z,11.27
2022-09-28T12:14:16.226Z,11.26
2022-09-28T12:17:05.907Z,11.22
2022-09-28T12:19:40.578Z,11.19
2022-09-28T12:22:33.833Z,11.20
2022-09-28T12:25:02.865Z,11.22
2022-09-28T12:27:42.762Z,11.22
2022-09-28T12:30:22.542Z,11.22
2022-09-28T12:32:50.995Z,11.24
2022-09-28T12:35:49.061Z,11.25
2022-09-28T12:38:31.885Z,11.25
2022-09-28T12:41:29.136Z,11.24
2022-09-28T12:44:12.099Z,11.22
2022-09-28T12:47:16.785Z,11.22
2022-09-28T12:53:20.107Z,11.29
2022-09-28T12:55:56.802Z,11.35
2022-09-28T12:58:37.334Z,11.42
2022-09-28T13:01:32.607Z,11.49
2022-09-28T13:04:06.897Z,11.55
2022-09-28T13:06:44.791Z,11.63
2022-09-28T13:09:22.871Z,11.68
2022-09-28T13:11:59.233Z,11.73
2022-09-28T13:14:54.409Z,11.78
2022-09-28T13:17:39.235Z,11.83
2022-09-28T13:20:40.248Z,11.90
2022-09-28T13:23:15.320Z,11.92
2022-09-28T13:26:11.416Z,11.92
2022-09-28T13:28:39.690Z,11.90
2022-09-28T13:31:07.869Z,11.86
2022-09-28T13:33:40.826Z,11.80
2022-09-28T13:36:26.953Z,11.76
2022-09-28T13:38:55.649Z,11.75
2022-09-28T13:41:37.040Z,11.74
2022-09-28T13:44:24.232Z,11.71
2022-09-28T13:47:10.759Z,11.68
2022-09-28T13:49:58.321Z,11.65
2022-09-28T13:52:35.059Z,11.63
2022-09-28T13:55:11.239Z,11.60
2022-09-28T13:57:59.546Z,11.58
2022-09-28T14:00:47.485Z,11.57
2022-09-28T14:03:37.358Z,11.62
2022-09-28T14:06:23.573Z,11.64
2022-09-28T14:09:23.468Z,11.64
2022-09-28T14:12:01.391Z,11.63
2022-09-28T14:14:53.307Z,11.63
2022-09-28T14:17:23.932Z,11.64
2022-09-28T14:19:54.056Z,11.64
2022-09-28T14:22:36.882Z,11.62
2022-09-28T14:25:15.606Z,11.59
2022-09-28T14:27:53.702Z,11.54
2022-09-28T14:30:24.016Z,11.52
2022-09-28T14:32:58.315Z,11.49
2022-09-28T14:35:28.365Z,11.46
2022-09-28T14:38:18.039Z,11.43
2022-09-28T14:41:11.515Z,11.41
2022-09-28T14:43:38.658Z,11.39
2022-09-28T14:46:11.719Z,11.36
2022-09-28T14:48:44.842Z,11.36
2022-09-28T14:51:27.447Z,11.36
2022-09-28T14:54:01.303Z,11.36
2022-09-28T14:56:32.748Z,11.34
2022-09-28T14:59:01.067Z,11.34
2022-09-28T15:01:28.435Z,11.38
2022-09-28T15:03:57.149Z,11.43
2022-09-28T15:06:26.031Z,11.49
2022-09-28T15:08:53.358Z,11.56
2022-09-28T15:11:23.913Z,11.63
2022-09-28T15:13:54.419Z,11.70
2022-09-28T15:16:24.531Z,11.78
2022-09-28T15:19:04.483Z,11.86
2022-09-28T15:21:38.005Z,11.94
2022-09-28T15:24:24.413Z,11.97
2022-09-28T15:26:52.372Z,12.01
2022-09-28T15:29:20.908Z,12.07
2022-09-28T15:31:52.305Z,12.12
2022-09-28T15:34:48.175Z,12.13
2022-09-28T15:37:18.658Z,12.11
2022-09-28T15:39:49.079Z,12.06
2022-09-28T15:42:18.867Z,11.99
2022-09-28T15:45:23.501Z,11.87
2022-09-28T15:47:52.839Z,11.75
2022-09-28T15:50:29.232Z,11.67
2022-09-28T15:53:01.775Z,11.58
2022-09-28T15:55:35.058Z,11.48
2022-09-28T15:58:18.354Z,11.40
2022-09-28T16:00:50.447Z,11.32
2022-09-28T16:03:18.119Z,11.25
2022-09-28T16:06:10.345Z,11.18
2022-09-28T16:08:45.831Z,11.09
2022-09-28T16:11:22.276Z,11.02
2022-09-28T16:14:17.902Z,10.93
2022-09-28T16:16:51.499Z,10.84
2022-09-28T16:19:23.968Z,10.76
2022-09-28T16:21:56.843Z,10.69
2022-09-28T16:24:31.145Z,10.60
2022-09-28T16:27:03.769Z,10.52
2022-09-28T16:29:40.476Z,10.44
2022-09-28T16:32:26.776Z,10.36
2022-09-28T16:35:23.579Z,10.26
2022-09-28T16:38:04.458Z,10.15
2022-09-28T16:40:33.048Z,10.05
2022-09-28T16:43:03.698Z,9.96
2022-09-28T16:45:31.274Z,9.88
2022-09-28T16:47:59.030Z,9.81
2022-09-28T16:50:26.598Z,9.75
2022-09-28T16:53:18.725Z,9.67
2022-09-28T16:55:47.963Z,9.58
2022-09-28T16:58:15.473Z,9.51
2022-09-28T17:00:43.881Z,9.43
2022-09-28T17:03:16.756Z,9.36
2022-09-28T17:05:44.703Z,9.28
2022-09-28T17:08:17.702Z,9.21
2022-09-28T17:11:13.935Z,9.13
2022-09-28T17:13:45.475Z,9.04
2022-09-28T17:16:28.252Z,8.97
2022-09-28T17:19:06.319Z,8.91
2022-09-28T17:21:34.057Z,8.87
2022-09-28T17:24:01.963Z,8.83
2022-09-28T17:26:35.053Z,8.80
2022-09-28T17:29:09.032Z,8.76
2022-09-28T17:31:36.484Z,8.71
2022-09-28T17:34:03.835Z,8.67
2022-09-28T17:36:31.291Z,8.63
2022-09-28T17:38:58.744Z,8.61
2022-09-28T17:41:26.001Z,8.60
2022-09-28T17:43:53.352Z,8.60
2022-09-28T17:46:30.667Z,8.59
2022-09-28T17:49:02.132Z,8.57
2022-09-28T17:51:31.438Z,8.55
2022-09-28T17:54:01.378Z,8.52
2022-09-28T17:56:32.375Z,8.48
2022-09-28T17:59:06.341Z,8.43
2022-09-28T18:01:34.966Z,8.38
2022-09-28T18:04:04.168Z,8.34
2022-09-28T18:06:34.010Z,8.30
2022-09-28T18:09:03.483Z,8.25
2022-09-28T18:11:32.596Z,8.20
2022-09-28T18:14:00.060Z,8.15
2022-09-28T18:16:29.181Z,8.09
2022-09-28T18:18:56.649Z,8.05
2022-09-28T18:21:24.225Z,8.04
2022-09-28T18:23:51.669Z,8.04
2022-09-28T18:26:22.093Z,8.06
2022-09-28T18:28:54.674Z,8.10
2022-09-28T18:31:22.188Z,8.15
2022-09-28T18:36:36.514Z,8.32
2022-09-28T18:39:04.737Z,8.40
2022-09-28T18:41:32.247Z,8.46
2022-09-28T18:44:03.071Z,8.53
2022-09-28T18:46:37.376Z,8.57
2022-09-28T18:49:05.873Z,8.62
2022-09-28T18:51:34.239Z,8.65
2022-09-28T18:54:08.012Z,8.66
2022-09-28T18:56:38.198Z,8.64
2022-09-28T18:59:11.247Z,8.60
2022-09-28T19:01:42.420Z,8.56
2022-09-28T19:04:11.319Z,8.49
2022-09-28T19:06:43.041Z,8.43
2022-09-28T19:09:15.125Z,8.35
2022-09-28T19:11:42.869Z,8.29
2022-09-28T19:14:11.704Z,8.25
2022-09-28T19:16:39.313Z,8.22
2022-09-28T19:19:07.211Z,8.19
2022-09-28T19:21:34.810Z,8.17
2022-09-28T19:24:03.946Z,8.16
2022-09-28T19:26:32.215Z,8.15
2022-09-28T19:29:00.233Z,8.14
2022-09-28T19:31:29.548Z,8.13
2022-09-28T19:33:57.380Z,8.12
2022-09-28T19:36:26.439Z,8.12
2022-09-28T19:38:54.208Z,8.12
2022-09-28T19:41:44.201Z,8.10
2022-09-28T19:44:30.494Z,8.07
2022-09-28T19:46:59.029Z,8.03
2022-09-28T19:49:28.180Z,7.98
2022-09-28T19:52:12.219Z,7.95
2022-09-28T19:54:57.822Z,7.90
2022-09-28T19:57:28.074Z,7.86
2022-09-28T20:00:01.709Z,7.80
2022-09-28T20:02:34.874Z,7.75
2022-09-28T20:05:03.194Z,7.69
2022-09-28T20:07:33.744Z,7.63
2022-09-28T20:10:01.079Z,7.60
2022-09-28T20:12:28.755Z,7.57
2022-09-28T20:14:56.384Z,7.53
2022-09-28T20:17:24.154Z,7.51
2022-09-28T20:19:52.445Z,7.47
2022-09-28T20:22:20.652Z,7.39
2022-09-28T20:24:48.279Z,7.29
2022-09-28T20:27:16.015Z,7.17
2022-09-28T20:29:43.919Z,7.05
2022-09-28T20:32:12.265Z,6.96
2022-09-28T20:34:40.638Z,6.89
2022-09-28T20:37:08.261Z,6.82
2022-09-28T20:39:35.553Z,6.78
2022-09-28T20:42:03.569Z,6.76
2022-09-28T20:44:31.805Z,6.76
2022-09-28T20:46:59.919Z,6.76
2022-09-28T20:49:28.692Z,6.75
2022-09-28T20:51:56.112Z,6.76
2022-09-28T20:54:24.724Z,6.76
2022-09-28T20:56:52.411Z,6.76
2022-09-28T20:59:23.187Z,6.76
2022-09-28T21:01:51.500Z,6.76
2022-09-28T21:04:19.893Z,6.72
2022-09-28T21:06:47.244Z,6.67
2022-09-28T21:09:14.560Z,6.61
2022-09-28T21:11:42.127Z,6.58
2022-09-28T21:14:10.799Z,6.58
2022-09-28T21:16:38.558Z,6.59
2022-09-28T21:19:05.929Z,6.63
2022-09-28T21:21:33.515Z,6.67
2022-09-28T21:24:01.349Z,6.68
2022-09-28T21:26:30.604Z,6.66
2022-09-28T21:29:01.032Z,6.59
2022-09-28T21:31:32.872Z,6.53
2022-09-28T21:34:00.798Z,6.47
2022-09-28T21:36:28.039Z,6.40
2022-09-28T21:38:56.391Z,6.34
2022-09-28T21:41:25.043Z,6.29
2022-09-28T21:43:52.572Z,6.22
2022-09-28T21:46:19.892Z,6.13
2022-09-28T21:48:51.200Z,6.08
2022-09-28T21:51:18.749Z,6.03
2022-09-28T21:53:45.983Z,5.97
2022-09-28T21:56:13.839Z,5.90
2022-09-28T21:58:41.122Z,5.87
2022-09-28T22:01:19.860Z,5.84
2022-09-28T22:03:49.553Z,5.83
2022-09-28T22:06:18.717Z,5.85
2022-09-28T22:08:47.121Z,5.87
2022-09-28T22:11:17.504Z,5.89
2022-09-28T22:13:51.039Z,5.91
2022-09-28T22:16:20.513Z,5.91
2022-09-28T22:18:48.558Z,5.89
2022-09-28T22:21:22.522Z,5.85
2022-09-28T22:23:50.584Z,5.79
2022-09-28T22:26:20.486Z,5.75
2022-09-28T22:28:55.639Z,5.70
2022-09-28T22:31:25.590Z,5.66
2022-09-28T22:33:53.518Z,5.62
2022-09-28T22:36:21.473Z,5.60
2022-09-28T22:38:49.547Z,5.58
2022-09-28T22:41:19.915Z,5.56
2022-09-28T22:43:48.445Z,5.56
2022-09-28T22:46:18.890Z,5.56
2022-09-28T22:48:51.630Z,5.54
2022-09-28T22:51:19.451Z,5.51
2022-09-28T22:53:46.671Z,5.48
2022-09-28T22:56:18.404Z,5.46
2022-09-28T22:58:47.041Z,5.43
2022-09-28T23:01:16.133Z,5.38
2022-09-28T23:03:45.222Z,5.32
2022-09-28T23:06:14.359Z,5.27
2022-09-28T23:08:41.859Z,5.24
2022-09-28T23:11:09.657Z,5.21
2022-09-28T23:13:38.692Z,5.18
2022-09-28T23:16:08.181Z,5.16
2022-09-28T23:18:37.959Z,5.14
2022-09-28T23:21:08.146Z,5.10
2022-09-28T23:23:35.515Z,5.05
2022-09-28T23:26:17.351Z,4.99
2022-09-28T23:28:44.675Z,5.00
2022-09-28T23:31:15.057Z,5.03
2022-09-28T23:33:42.350Z,5.02
2022-09-28T23:36:10.319Z,5.02
2022-09-28T23:38:37.871Z,5.01
2022-09-28T23:41:05.616Z,4.97
2022-09-28T23:43:33.400Z,4.95
2022-09-28T23:46:00.940Z,4.94
2022-09-28T23:48:28.441Z,4.92
2022-09-28T23:50:55.879Z,4.90
2022-09-28T23:53:23.072Z,4.88
2022-09-28T23:55:50.768Z,4.84
2022-09-28T23:58:18.033Z,4.82
